createdAt,value
2022-11-25T00:01:56.104Z,98354.03
2022-11-25T00:04:25.329Z,98349.72
2022-11-25T00:06:54.310Z,98343.44
2022-11-25T00:09:23.614Z,98359.03
2022-11-25T00:11:54.074Z,98355.06
2022-11-25T00:14:23.263Z,98356.22
2022-11-25T00:16:52.345Z,98360.41
2022-11-25T00:19:21.524Z,98356.28
2022-11-25T00:21:50.565Z,98370.63
2022-11-25T00:24:19.622Z,98365.63
2022-11-25T00:26:48.667Z,98369.91
2022-11-25T00:29:19.177Z,98365.63
2022-11-25T00:31:48.269Z,98362.72
2022-11-25T00:34:17.528Z,98363.50
2022-11-25T00:36:46.647Z,98364.72
2022-11-25T00:39:19.922Z,98367.47
2022-11-25T00:42:06.490Z,98362.59
2022-11-25T00:44:39.617Z,98366.97
2022-11-25T00:47:11.701Z,98370.00
2022-11-25T00:49:42.806Z,98376.41
2022-11-25T00:52:16.352Z,98377.19
2022-11-25T00:54:46.143Z,98374.44
2022-11-25T00:57:17.420Z,98374.91
2022-11-25T00:59:48.899Z,98370.16
2022-11-25T01:02:19.530Z,98375.34
2022-11-25T01:04:49.076Z,98363.56
2022-11-25T01:07:19.039Z,98369.63
2022-11-25T01:09:50.843Z,98375.78
2022-11-25T01:12:19.999Z,98363.78
2022-11-25T01:14:50.508Z,98365.75
2022-11-25T01:17:19.625Z,98366.13
2022-11-25T01:19:49.403Z,98368.22
2022-11-25T01:22:18.567Z,98368.44
2022-11-25T01:24:47.707Z,98369.09
2022-11-25T01:27:16.782Z,98371.63
2022-11-25T01:29:45.840Z,98368.81
2022-11-25T01:32:17.552Z,98371.63
2022-11-25T01:34:46.654Z,98359.63
2022-11-25T01:37:15.776Z,98357.88
2022-11-25T01:39:46.130Z,98352.81
2022-11-25T01:42:15.124Z,98349.69
2022-11-25T01:44:44.491Z,98345.78
2022-11-25T01:47:23.487Z,98343.91
2022-11-25T01:50:06.336Z,98356.41
2022-11-25T01:52:39.421Z,98366.63
2022-11-25T01:55:12.636Z,98365.69
2022-11-25T01:57:46.840Z,98359.94
2022-11-25T02:00:18.081Z,98368.94
2022-11-25T02:02:50.798Z,98372.84
2022-11-25T02:05:30.946Z,98381.56
2022-11-25T02:08:03.131Z,98376.88
2022-11-25T02:10:34.116Z,98389.88
2022-11-25T02:13:04.928Z,98380.00
2022-11-25T02:15:36.143Z,98388.50
2022-11-25T02:18:08.770Z,98387.56
2022-11-25T02:20:41.058Z,98382.97
2022-11-25T02:23:29.597Z,98389.53
2022-11-25T02:26:04.073Z,98392.41
2022-11-25T02:28:34.566Z,98399.78
2022-11-25T02:31:08.166Z,98387.69
2022-11-25T02:33:38.626Z,98399.09
2022-11-25T02:36:14.028Z,98405.78
2022-11-25T02:38:48.771Z,98410.84
2022-11-25T02:41:26.552Z,98406.22
2022-11-25T02:44:01.679Z,98406.81
2022-11-25T02:46:31.512Z,98416.16
2022-11-25T02:49:10.821Z,98413.59
2022-11-25T02:51:43.990Z,98423.75
2022-11-25T02:54:15.645Z,98416.84
2022-11-25T02:56:46.472Z,98415.66
2022-11-25T02:59:16.598Z,98428.13
2022-11-25T03:01:45.775Z,98440.44
2022-11-25T03:04:15.180Z,98436.09
2022-11-25T03:06:44.225Z,98429.97
2022-11-25T03:09:13.342Z,98436.44
2022-11-25T03:11:59.843Z,98441.50
2022-11-25T03:14:30.546Z,98428.56
2022-11-25T03:16:59.627Z,98434.22
2022-11-25T03:19:30.000Z,98428.47
2022-11-25T03:21:59.187Z,98426.53
2022-11-25T03:24:28.320Z,98438.38
2022-11-25T03:26:57.470Z,98441.03
2022-11-25T03:29:26.906Z,98445.63
2022-11-25T03:31:57.489Z,98441.50
2022-11-25T03:34:26.743Z,98457.28
2022-11-25T03:36:55.968Z,98456.69
2022-11-25T03:39:28.507Z,98446.28
2022-11-25T03:41:57.673Z,98450.97
2022-11-25T03:44:26.865Z,98454.09
2022-11-25T03:46:57.368Z,98457.53
2022-11-25T03:49:26.819Z,98448.91
2022-11-25T03:51:57.006Z,98457.91
2022-11-25T03:54:26.437Z,98463.69
2022-11-25T03:57:16.084Z,98460.09
2022-11-25T03:59:45.199Z,98470.00
2022-11-25T04:02:15.918Z,98478.53
2022-11-25T04:04:45.151Z,98473.00
2022-11-25T04:07:14.325Z,98478.97
2022-11-25T04:09:43.450Z,98479.91
2022-11-25T04:12:32.171Z,98473.69
2022-11-25T04:15:08.220Z,98479.50
2022-11-25T04:17:38.987Z,98477.81
2022-11-25T04:20:10.354Z,98479.63
2022-11-25T04:22:40.966Z,98491.63
2022-11-25T04:25:11.448Z,98491.22
2022-11-25T04:27:40.620Z,98486.63
2022-11-25T04:30:11.463Z,98485.72
2022-11-25T04:32:44.302Z,98486.84
2022-11-25T04:35:15.512Z,98478.97
2022-11-25T04:37:48.513Z,98477.81
2022-11-25T04:40:17.905Z,98475.97
2022-11-25T04:42:56.272Z,98468.84
2022-11-25T04:45:45.397Z,98458.94
2022-11-25T04:48:19.552Z,98457.25
2022-11-25T04:50:49.082Z,98471.53
2022-11-25T04:53:19.938Z,98471.75
2022-11-25T04:55:49.928Z,98468.75
2022-11-25T04:58:39.085Z,98467.41
2022-11-25T05:01:07.778Z,98464.94
2022-11-25T05:03:38.382Z,98468.03
2022-11-25T05:06:08.896Z,98468.34
2022-11-25T05:08:40.051Z,98463.50
2022-11-25T05:11:11.657Z,98457.41
2022-11-25T05:13:40.772Z,98462.69
2022-11-25T05:16:11.575Z,98457.84
2022-11-25T05:18:42.036Z,98448.78
2022-11-25T05:21:11.251Z,98453.84
2022-11-25T05:23:43.484Z,98450.16
2022-11-25T05:26:12.918Z,98455.69
2022-11-25T05:28:45.500Z,98465.25
2022-11-25T05:31:14.951Z,98456.50
2022-11-25T05:33:47.054Z,98461.44
2022-11-25T05:36:17.650Z,98463.19
2022-11-25T05:38:49.159Z,98467.53
2022-11-25T05:41:26.336Z,98462.66
2022-11-25T05:43:56.950Z,98456.84
2022-11-25T05:46:26.334Z,98468.84
2022-11-25T05:49:00.578Z,98465.25
2022-11-25T05:51:30.455Z,98465.16
2022-11-25T05:54:01.846Z,98466.28
2022-11-25T05:56:33.476Z,98470.00
2022-11-25T05:59:20.934Z,98469.59
2022-11-25T06:02:06.682Z,98473.53
2022-11-25T06:04:38.147Z,98482.03
2022-11-25T06:07:07.530Z,98477.88
2022-11-25T06:09:36.988Z,98487.69
2022-11-25T06:12:06.836Z,98489.69
2022-11-25T06:14:40.879Z,98503.97
2022-11-25T06:17:09.976Z,98494.28
2022-11-25T06:19:48.603Z,98502.75
2022-11-25T06:22:17.972Z,98509.16
2022-11-25T06:24:52.238Z,98515.16
2022-11-25T06:27:43.950Z,98513.53
2022-11-25T06:30:18.245Z,98514.91
2022-11-25T06:33:01.315Z,98518.69
2022-11-25T06:35:31.860Z,98526.47
2022-11-25T06:38:04.255Z,98534.00
2022-11-25T06:40:33.580Z,98536.75
2022-11-25T06:43:02.796Z,98544.34
2022-11-25T06:45:31.796Z,98549.84
2022-11-25T06:48:00.935Z,98555.44
2022-11-25T06:50:31.488Z,98556.72
2022-11-25T06:53:02.411Z,98564.66
2022-11-25T06:55:31.540Z,98568.59
2022-11-25T06:58:27.878Z,98571.88
2022-11-25T07:00:49.651Z,98575.81
2022-11-25T07:03:18.741Z,98575.13
2022-11-25T07:05:49.328Z,98571.22
2022-11-25T07:08:18.951Z,98563.38
2022-11-25T07:10:48.022Z,98565.00
2022-11-25T07:13:17.083Z,98557.19
2022-11-25T07:15:46.188Z,98564.06
2022-11-25T07:18:15.583Z,98557.06
2022-11-25T07:20:44.647Z,98566.66
2022-11-25T07:23:15.172Z,98568.81
2022-11-25T07:25:44.224Z,98575.41
2022-11-25T07:28:13.584Z,98568.38
2022-11-25T07:33:32.122Z,98587.16
2022-11-25T07:36:04.313Z,98590.63
2022-11-25T07:38:35.437Z,98586.22
2022-11-25T07:41:08.489Z,98584.84
2022-11-25T07:43:38.047Z,98589.00
2022-11-25T07:46:14.533Z,98588.25
2022-11-25T07:48:44.519Z,98597.91
2022-11-25T07:51:19.155Z,98596.50
2022-11-25T07:53:51.196Z,98595.66
2022-11-25T07:56:21.204Z,98595.41
2022-11-25T07:58:50.612Z,98590.88
2022-11-25T08:01:20.972Z,98593.41
2022-11-25T08:03:52.406Z,98603.19
2022-11-25T08:06:24.633Z,98602.78
2022-11-25T08:08:57.397Z,98610.31
2022-11-25T08:11:29.154Z,98615.13
2022-11-25T08:13:59.171Z,98613.75
2022-11-25T08:16:32.218Z,98620.50
2022-11-25T08:19:03.633Z,98614.47
2022-11-25T08:21:32.850Z,98614.09
2022-11-25T08:24:04.113Z,98615.63
2022-11-25T08:26:36.531Z,98616.19
2022-11-25T08:29:07.712Z,98616.53
2022-11-25T08:31:39.130Z,98616.84
2022-11-25T08:34:08.691Z,98611.22
2022-11-25T08:36:38.170Z,98612.31
2022-11-25T08:39:28.881Z,98615.53
2022-11-25T08:41:58.645Z,98632.44
2022-11-25T08:44:30.029Z,98632.31
2022-11-25T08:46:59.232Z,98624.66
2022-11-25T08:49:34.781Z,98640.41
2022-11-25T08:52:08.159Z,98636.91
2022-11-25T08:54:39.328Z,98632.72
2022-11-25T08:57:08.499Z,98627.84
2022-11-25T08:59:37.987Z,98640.69
2022-11-25T09:02:07.860Z,98624.25
2022-11-25T09:04:37.122Z,98632.53
2022-11-25T09:07:06.606Z,98628.81
2022-11-25T09:09:36.514Z,98631.38
2022-11-25T09:12:07.564Z,98629.88
2022-11-25T09:14:36.650Z,98621.50
2022-11-25T09:17:11.129Z,98626.00
2022-11-25T09:19:40.406Z,98630.69
2022-11-25T09:22:09.857Z,98620.47
2022-11-25T09:24:38.889Z,98622.16
2022-11-25T09:27:09.282Z,98617.81
2022-11-25T09:29:38.692Z,98609.56
2022-11-25T09:32:07.972Z,98614.84
2022-11-25T09:34:37.334Z,98615.72
2022-11-25T09:37:06.656Z,98623.06
2022-11-25T09:39:36.388Z,98625.09
2022-11-25T09:42:44.540Z,98621.94
2022-11-25T09:45:38.850Z,98615.53
2022-11-25T09:48:31.704Z,98604.41
2022-11-25T09:51:11.816Z,98604.38
2022-11-25T09:53:45.683Z,98600.38
2022-11-25T09:56:28.533Z,98595.97
2022-11-25T09:59:05.825Z,98604.81
2022-11-25T10:01:45.121Z,98607.25
2022-11-25T10:04:20.715Z,98610.06
2022-11-25T10:06:55.750Z,98608.53
2022-11-25T10:09:28.131Z,98595.31
2022-11-25T10:12:01.777Z,98596.53
2022-11-25T10:14:39.986Z,98590.94
2022-11-25T10:17:19.588Z,98591.31
2022-11-25T10:19:58.163Z,98581.31
2022-11-25T10:22:31.611Z,98578.13
2022-11-25T10:25:03.563Z,98575.31
2022-11-25T10:27:43.299Z,98569.31
2022-11-25T10:30:21.790Z,98569.31
2022-11-25T10:32:59.300Z,98564.53
2022-11-25T10:35:36.823Z,98557.72
2022-11-25T10:38:18.565Z,98559.72
2022-11-25T10:40:51.775Z,98561.31
2022-11-25T10:43:20.923Z,98554.88
2022-11-25T10:46:04.092Z,98554.88
2022-11-25T10:48:52.720Z,98550.84
2022-11-25T10:51:43.150Z,98542.00
2022-11-25T10:54:25.500Z,98550.78
2022-11-25T10:56:58.700Z,98545.97
2022-11-25T10:59:31.456Z,98549.13
2022-11-25T11:02:28.725Z,98537.06
2022-11-25T11:05:01.350Z,98533.78
2022-11-25T11:07:34.243Z,98534.56
2022-11-25T11:10:21.819Z,98535.34
2022-11-25T11:12:58.845Z,98531.31
2022-11-25T11:15:30.567Z,98528.88
2022-11-25T11:18:15.738Z,98530.88
2022-11-25T11:20:48.815Z,98526.03
2022-11-25T11:23:18.340Z,98527.97
2022-11-25T11:25:59.444Z,98522.22
2022-11-25T11:28:38.694Z,98526.97
2022-11-25T11:31:19.257Z,98522.31
2022-11-25T11:34:10.254Z,98525.59
2022-11-25T11:37:05.255Z,98527.91
2022-11-25T11:40:01.066Z,98523.03
2022-11-25T11:42:40.550Z,98522.59
2022-11-25T11:45:30.289Z,98532.69
2022-11-25T11:48:13.123Z,98517.53
2022-11-25T11:50:49.098Z,98515.94
2022-11-25T11:53:30.954Z,98514.34
2022-11-25T11:59:38.140Z,98512.69
2022-11-25T12:02:25.298Z,98511.91
2022-11-25T12:05:06.092Z,98515.25
2022-11-25T12:07:45.928Z,98509.56
2022-11-25T12:10:27.013Z,98510.25
2022-11-25T12:13:06.836Z,98513.44
2022-11-25T12:15:45.132Z,98517.44
2022-11-25T12:18:32.272Z,98508.69
2022-11-25T12:21:05.469Z,98507.81
2022-11-25T12:23:47.639Z,98510.56
2022-11-25T12:26:23.570Z,98512.56
2022-11-25T12:28:58.699Z,98512.56
2022-11-25T12:31:32.457Z,98512.06
2022-11-25T12:34:09.141Z,98504.06
2022-11-25T12:36:41.562Z,98502.75
2022-11-25T12:39:25.375Z,98505.53
2022-11-25T12:42:01.003Z,98506.03
2022-11-25T12:44:37.430Z,98514.78
2022-11-25T12:47:11.652Z,98506.19
2022-11-25T12:49:44.905Z,98503.56
2022-11-25T12:52:42.357Z,98512.72
2022-11-25T12:55:18.785Z,98506.88
2022-11-25T12:58:37.716Z,98503.34
2022-11-25T13:01:46.747Z,98504.84
2022-11-25T13:05:18.482Z,98508.56
2022-11-25T13:08:01.796Z,98511.28
2022-11-25T13:10:52.265Z,98506.44
2022-11-25T13:13:39.845Z,98507.22
2022-11-25T13:16:11.788Z,98513.50
2022-11-25T13:18:45.496Z,98510.03
2022-11-25T13:21:16.683Z,98506.53
2022-11-25T13:23:53.267Z,98497.94
2022-11-25T13:26:53.436Z,98495.66
2022-11-25T13:30:05.237Z,98509.91
2022-11-25T13:32:42.267Z,98506.44
2022-11-25T13:35:38.222Z,98504.69
2022-11-25T13:39:02.010Z,98507.56
2022-11-25T13:41:44.955Z,98512.94
2022-11-25T13:44:35.274Z,98513.16
2022-11-25T13:47:26.202Z,98510.97
2022-11-25T13:49:59.520Z,98517.44
2022-11-25T13:52:42.371Z,98515.84
2022-11-25T13:55:34.010Z,98522.03
2022-11-25T13:58:21.516Z,98528.09
2022-11-25T14:01:30.491Z,98533.53
2022-11-25T14:04:01.457Z,98527.25
2022-11-25T14:06:53.396Z,98534.50
2022-11-25T14:09:44.989Z,98533.25
2022-11-25T14:12:44.581Z,98537.41
2022-11-25T14:15:35.802Z,98536.91
2022-11-25T14:19:03.583Z,98536.31
2022-11-25T14:21:49.582Z,98526.34
2022-11-25T14:24:31.277Z,98524.78
2022-11-25T14:27:01.423Z,98525.56
2022-11-25T14:29:38.810Z,98528.59
2022-11-25T14:32:14.716Z,98524.66
2022-11-25T14:34:48.053Z,98526.19
2022-11-25T14:37:22.733Z,98535.28
2022-11-25T14:39:57.483Z,98533.28
2022-11-25T14:42:34.196Z,98529.50
2022-11-25T14:45:03.429Z,98513.06
2022-11-25T14:47:37.572Z,98512.81
2022-11-25T14:53:08.943Z,98508.56
2022-11-25T14:55:39.126Z,98511.13
2022-11-25T14:58:08.231Z,98504.22
2022-11-25T15:00:51.683Z,98506.56
2022-11-25T15:03:22.440Z,98494.41
2022-11-25T15:05:57.210Z,98504.03
2022-11-25T15:08:27.614Z,98500.41
2022-11-25T15:11:00.074Z,98505.94
2022-11-25T15:13:34.387Z,98501.44
2022-11-25T15:16:11.715Z,98506.53
2022-11-25T15:18:46.981Z,98511.16
2022-11-25T15:21:18.579Z,98502.59
2022-11-25T15:23:47.881Z,98505.28
2022-11-25T15:26:21.667Z,98506.38
2022-11-25T15:28:56.873Z,98507.75
2022-11-25T15:31:31.690Z,98510.34
2022-11-25T15:34:07.047Z,98514.91
2022-11-25T15:36:36.196Z,98510.63
2022-11-25T15:39:17.335Z,98511.22
2022-11-25T15:41:49.857Z,98511.41
2022-11-25T15:44:23.296Z,98518.88
2022-11-25T15:46:57.448Z,98522.34
2022-11-25T15:49:28.340Z,98517.09
2022-11-25T15:52:04.638Z,98510.59
2022-11-25T15:54:40.317Z,98524.69
2022-11-25T15:57:19.087Z,98518.16
2022-11-25T15:59:51.898Z,98519.66
2022-11-25T16:02:40.956Z,98517.94
2022-11-25T16:05:29.003Z,98510.63
2022-11-25T16:08:00.407Z,98515.31
2022-11-25T16:10:32.163Z,98519.19
2022-11-25T16:13:33.564Z,98520.81
2022-11-25T16:16:24.154Z,98525.06
2022-11-25T16:19:26.813Z,98532.16
2022-11-25T16:22:04.275Z,98523.72
2022-11-25T16:24:50.583Z,98530.88
2022-11-25T16:27:23.848Z,98540.97
2022-11-25T16:29:56.893Z,98547.09
2022-11-25T16:32:28.675Z,98543.22
2022-11-25T16:35:02.033Z,98539.25
2022-11-25T16:37:32.481Z,98540.84
2022-11-25T16:40:01.575Z,98547.97
2022-11-25T16:42:30.810Z,98549.88
2022-11-25T16:45:02.506Z,98551.06
2022-11-25T16:47:31.830Z,98562.94
2022-11-25T16:50:02.779Z,98566.16
2022-11-25T16:52:33.408Z,98566.97
2022-11-25T16:55:02.507Z,98573.28
2022-11-25T16:57:31.958Z,98574.00
2022-11-25T17:00:08.439Z,98571.66
2022-11-25T17:02:38.115Z,98572.34
2022-11-25T17:05:18.842Z,98577.31
2022-11-25T17:07:51.099Z,98572.66
2022-11-25T17:10:21.732Z,98575.75
2022-11-25T17:12:51.575Z,98581.25
2022-11-25T17:15:31.304Z,98578.91
2022-11-25T17:18:01.616Z,98583.69
2022-11-25T17:20:30.820Z,98579.94
2022-11-25T17:23:02.375Z,98578.09
2022-11-25T17:25:36.672Z,98579.41
2022-11-25T17:28:06.539Z,98583.00
2022-11-25T17:30:36.176Z,98586.97
2022-11-25T17:33:09.005Z,98590.66
2022-11-25T17:35:38.241Z,98585.88
2022-11-25T17:38:14.488Z,98585.22
2022-11-25T17:40:44.732Z,98583.28
2022-11-25T17:43:20.385Z,98591.06
2022-11-25T17:45:49.658Z,98599.66
2022-11-25T17:48:20.091Z,98602.66
2022-11-25T17:50:49.191Z,98609.22
2022-11-25T17:53:22.098Z,98614.22
2022-11-25T17:55:51.481Z,98610.09
2022-11-25T17:58:21.730Z,98612.97
2022-11-25T18:00:51.047Z,98614.34
2022-11-25T18:03:20.502Z,98612.84
2022-11-25T18:05:49.843Z,98610.97
2022-11-25T18:08:20.739Z,98609.97
2022-11-25T18:10:50.045Z,98625.88
2022-11-25T18:13:19.191Z,98623.31
2022-11-25T18:15:48.808Z,98623.75
2022-11-25T18:18:22.893Z,98632.81
2022-11-25T18:20:52.408Z,98638.53
2022-11-25T18:23:24.194Z,98636.47
2022-11-25T18:25:55.596Z,98637.66
2022-11-25T18:28:28.018Z,98646.59
2022-11-25T18:31:03.688Z,98652.16
2022-11-25T18:33:33.618Z,98647.09
2022-11-25T18:36:02.864Z,98655.97
2022-11-25T18:38:34.139Z,98648.63
2022-11-25T18:41:03.619Z,98656.03
2022-11-25T18:43:34.903Z,98664.38
2022-11-25T18:46:05.001Z,98662.97
2022-11-25T18:48:34.512Z,98670.00
2022-11-25T18:51:03.856Z,98662.69
2022-11-25T18:53:34.576Z,98668.81
2022-11-25T18:56:03.818Z,98671.47
2022-11-25T18:58:33.885Z,98672.94
2022-11-25T19:01:06.866Z,98673.81
2022-11-25T19:03:36.036Z,98661.66
2022-11-25T19:06:05.735Z,98681.88
2022-11-25T19:08:36.398Z,98675.41
2022-11-25T19:11:05.997Z,98680.53
2022-11-25T19:13:37.429Z,98683.75
2022-11-25T19:16:11.391Z,98683.75
2022-11-25T19:18:40.888Z,98683.78
2022-11-25T19:21:15.466Z,98680.19
2022-11-25T19:23:47.051Z,98683.59
2022-11-25T19:26:19.588Z,98686.06
2022-11-25T19:28:52.856Z,98685.34
2022-11-25T19:31:22.450Z,98694.88
2022-11-25T19:33:52.814Z,98693.44
2022-11-25T19:36:25.512Z,98693.53
2022-11-25T19:38:56.400Z,98695.97
2022-11-25T19:41:25.680Z,98698.31
2022-11-25T19:43:54.844Z,98702.09
2022-11-25T19:46:33.167Z,98700.38
2022-11-25T19:49:07.087Z,98709.53
2022-11-25T19:51:36.602Z,98713.53
2022-11-25T19:54:10.538Z,98716.66
2022-11-25T19:56:40.230Z,98721.50
2022-11-25T19:59:10.534Z,98723.16
2022-11-25T20:01:42.829Z,98714.53
2022-11-25T20:04:20.636Z,98711.97
2022-11-25T20:06:50.797Z,98724.34
2022-11-25T20:09:21.291Z,98729.25
2022-11-25T20:11:54.418Z,98731.31
2022-11-25T20:14:23.515Z,98735.44
2022-11-25T20:16:52.805Z,98739.56
2022-11-25T20:19:22.039Z,98749.69
2022-11-25T20:21:51.292Z,98741.63
2022-11-25T20:24:22.060Z,98738.03
2022-11-25T20:26:51.675Z,98747.38
2022-11-25T20:29:28.980Z,98742.28
2022-11-25T20:31:59.845Z,98753.19
2022-11-25T20:34:31.319Z,98744.66
2022-11-25T20:37:00.661Z,98745.63
2022-11-25T20:39:31.683Z,98741.88
2022-11-25T20:42:01.521Z,98742.25
2022-11-25T20:44:30.591Z,98747.09
2022-11-25T20:46:59.745Z,98753.44
2022-11-25T20:49:29.565Z,98750.13
2022-11-25T20:51:58.908Z,98750.34
2022-11-25T20:54:27.995Z,98751.19
2022-11-25T20:56:58.460Z,98748.03
2022-11-25T20:59:28.717Z,98749.94
2022-11-25T21:01:57.931Z,98748.97
2022-11-25T21:04:27.087Z,98754.50
2022-11-25T21:06:56.660Z,98755.19
2022-11-25T21:09:34.572Z,98762.78
2022-11-25T21:12:17.532Z,98761.63
2022-11-25T21:14:48.925Z,98760.03
2022-11-25T21:17:18.027Z,98764.88
2022-11-25T21:19:47.228Z,98764.47
2022-11-25T21:22:23.902Z,98768.41
2022-11-25T21:24:53.166Z,98771.81
2022-11-25T21:27:23.756Z,98772.66
2022-11-25T21:29:53.971Z,98780.19
2022-11-25T21:32:25.956Z,98777.66
2022-11-25T21:34:55.431Z,98784.69
2022-11-25T21:37:32.352Z,98796.47
2022-11-25T21:40:02.955Z,98792.78
2022-11-25T21:42:34.520Z,98788.88
2022-11-25T21:45:04.818Z,98796.03
2022-11-25T21:47:34.686Z,98784.69
2022-11-25T21:50:10.596Z,98800.88
2022-11-25T21:52:40.355Z,98802.03
2022-11-25T21:55:14.121Z,98811.75
2022-11-25T21:57:45.153Z,98810.81
2022-11-25T22:00:25.320Z,98812.56
2022-11-25T22:02:56.914Z,98823.31
2022-11-25T22:05:26.814Z,98821.59
2022-11-25T22:07:57.022Z,98829.31
2022-11-25T22:10:26.235Z,98831.88
2022-11-25T22:12:56.859Z,98839.03
2022-11-25T22:15:26.318Z,98830.91
2022-11-25T22:17:58.870Z,98833.00
2022-11-25T22:20:33.456Z,98838.66
2022-11-25T22:23:03.784Z,98838.81
2022-11-25T22:25:34.079Z,98840.44
2022-11-25T22:28:05.102Z,98834.69
2022-11-25T22:30:34.572Z,98846.16
2022-11-25T22:33:05.051Z,98849.56
2022-11-25T22:35:34.166Z,98855.97
2022-11-25T22:38:03.815Z,98846.50
2022-11-25T22:40:33.372Z,98843.53
2022-11-25T22:43:02.549Z,98836.56
2022-11-25T22:45:35.626Z,98841.03
2022-11-25T22:48:07.834Z,98840.44
2022-11-25T22:50:37.245Z,98837.41
2022-11-25T22:53:14.684Z,98840.34
2022-11-25T22:55:44.925Z,98846.09
2022-11-25T22:58:15.716Z,98841.56
2022-11-25T23:00:48.702Z,98846.31
2022-11-25T23:03:22.123Z,98845.25
2022-11-25T23:05:54.331Z,98844.56
2022-11-25T23:08:26.637Z,98849.94
2022-11-25T23:10:56.820Z,98849.00
2022-11-25T23:13:26.260Z,98853.25
2022-11-25T23:15:59.543Z,98866.19
2022-11-25T23:18:37.991Z,98865.03
2022-11-25T23:21:14.241Z,98859.22
2022-11-25T23:23:43.381Z,98859.88
2022-11-25T23:26:13.927Z,98853.59
2022-11-25T23:28:43.477Z,98865.19
2022-11-25T23:31:15.702Z,98868.72
2022-11-25T23:33:47.564Z,98862.22
2022-11-25T23:36:22.860Z,98873.41
2022-11-25T23:38:55.265Z,98875.03
2022-11-25T23:41:27.242Z,98876.09
2022-11-25T23:43:57.025Z,98875.13
2022-11-25T23:46:35.437Z,98871.00
2022-11-25T23:49:05.508Z,98871.63
2022-11-25T23:51:34.716Z,98872.75
2022-11-25T23:54:03.795Z,98869.16
2022-11-25T23:56:32.825Z,98874.38
2022-11-25T23:59:01.910Z,98880.31
